sensor_id;sensor_type;location;lat;lon;timestamp;P1;durP1;ratioP1;P2;durP2;ratioP2
15104;SDS011;7653;48.994;9.212;2022-09-27T00:00:03;1.03;;;0.93;;
15104;SDS011;7653;48.994;9.212;2022-09-27T00:02:30;1.77;;;0.57;;
15104;SDS011;7653;48.994;9.212;2022-09-27T00:04:56;0.73;;;0.50;;
15104;SDS011;7653;48.994;9.212;2022-09-27T00:07:23;0.90;;;0.77;;
15104;SDS011;7653;48.994;9.212;2022-09-27T00:09:50;1.37;;;0.50;;
15104;SDS011;7653;48.994;9.212;2022-09-27T00:12:16;0.80;;;0.80;;
15104;SDS011;7653;48.994;9.212;2022-09-27T00:14:41;1.63;;;0.83;;
15104;SDS011;7653;48.994;9.212;2022-09-27T00:17:08;0.73;;;0.70;;
15104;SDS011;7653;48.994;9.212;2022-09-27T00:19:34;0.50;;;0.50;;
15104;SDS011;7653;48.994;9.212;2022-09-27T00:22:00;1.30;;;0.60;;
15104;SDS011;7653;48.994;9.212;2022-09-27T00:24:26;1.40;;;0.60;;
15104;SDS011;7653;48.994;9.212;2022-09-27T00:26:51;0.80;;;0.80;;
15104;SDS011;7653;48.994;9.212;2022-09-27T00:29:17;1.17;;;0.93;;
15104;SDS011;7653;48.994;9.212;2022-09-27T00:31:43;0.77;;;0.70;;
15104;SDS011;7653;48.994;9.212;2022-09-27T00:34:15;0.90;;;0.80;;
15104;SDS011;7653;48.994;9.212;2022-09-27T00:36:46;1.27;;;0.63;;
15104;SDS011;7653;48.994;9.212;2022-09-27T00:39:13;0.60;;;0.60;;
15104;SDS011;7653;48.994;9.212;2022-09-27T00:41:39;0.80;;;0.80;;
15104;SDS011;7653;48.994;9.212;2022-09-27T00:47:02;1.23;;;0.63;;
15104;SDS011;7653;48.994;9.212;2022-09-27T00:49:30;1.63;;;0.80;;
15104;SDS011;7653;48.994;9.212;2022-09-27T00:52:10;1.40;;;0.70;;
15104;SDS011;7653;48.994;9.212;2022-09-27T00:54:43;0.60;;;0.60;;
15104;SDS011;7653;48.994;9.212;2022-09-27T00:57:15;0.60;;;0.60;;
15104;SDS011;7653;48.994;9.212;2022-09-27T00:59:46;0.70;;;0.70;;
15104;SDS011;7653;48.994;9.212;2022-09-27T01:02:15;0.73;;;0.70;;
15104;SDS011;7653;48.994;9.212;2022-09-27T01:04:43;1.67;;;0.90;;
15104;SDS011;7653;48.994;9.212;2022-09-27T01:07:09;0.50;;;0.50;;
15104;SDS011;7653;48.994;9.212;2022-09-27T01:09:35;1.43;;;0.80;;
15104;SDS011;7653;48.994;9.212;2022-09-27T16:15:56;1.53;;;1.40;;
15104;SDS011;7653;48.994;9.212;2022-09-27T16:18:22;2.70;;;2.10;;
15104;SDS011;7653;48.994;9.212;2022-09-27T16:20:48;2.80;;;2.20;;
15104;SDS011;7653;48.994;9.212;2022-09-27T16:23:14;2.67;;;1.83;;
15104;SDS011;7653;48.994;9.212;2022-09-27T16:25:39;4.23;;;1.50;;
15104;SDS011;7653;48.994;9.212;2022-09-27T16:28:05;1.80;;;1.50;;
15104;SDS011;7653;48.994;9.212;2022-09-27T16:30:33;1.57;;;1.13;;
15104;SDS011;7653;48.994;9.212;2022-09-27T16:32:59;1.00;;;0.93;;
15104;SDS011;7653;48.994;9.212;2022-09-27T16:35:25;2.17;;;1.30;;
15104;SDS011;7653;48.994;9.212;2022-09-27T16:37:52;1.10;;;1.00;;
15104;SDS011;7653;48.994;9.212;2022-09-27T16:40:17;1.20;;;1.10;;
15104;SDS011;7653;48.994;9.212;2022-09-27T16:42:43;2.50;;;1.30;;
15104;SDS011;7653;48.994;9.212;2022-09-27T16:45:12;2.70;;;1.27;;
15104;SDS011;7653;48.994;9.212;2022-09-27T16:47:40;2.90;;;1.20;;
15104;SDS011;7653;48.994;9.212;2022-09-27T16:50:06;1.47;;;1.10;;
15104;SDS011;7653;48.994;9.212;2022-09-27T16:52:58;2.03;;;1.00;;
15104;SDS011;7653;48.994;9.212;2022-09-27T16:59:12;1.67;;;1.40;;
15104;SDS011;7653;48.994;9.212;2022-09-27T17:11:44;1.87;;;1.10;;
15104;SDS011;7653;48.994;9.212;2022-09-27T17:14:26;1.13;;;0.97;;
15104;SDS011;7653;48.994;9.212;2022-09-27T17:16:52;1.87;;;1.33;;
15104;SDS011;7653;48.994;9.212;2022-09-27T17:19:22;3.13;;;1.30;;
15104;SDS011;7653;48.994;9.212;2022-09-27T17:21:48;1.73;;;1.23;;
15104;SDS011;7653;48.994;9.212;2022-09-27T17:24:14;4.93;;;1.63;;
15104;SDS011;7653;48.994;9.212;2022-09-27T17:26:41;2.10;;;1.17;;
15104;SDS011;7653;48.994;9.212;2022-09-27T17:29:15;2.03;;;1.17;;
15104;SDS011;7653;48.994;9.212;2022-09-27T17:31:41;2.93;;;1.10;;
15104;SDS011;7653;48.994;9.212;2022-09-27T17:34:08;1.60;;;1.30;;
15104;SDS011;7653;48.994;9.212;2022-09-27T17:36:43;1.80;;;1.40;;
15104;SDS011;7653;48.994;9.212;2022-09-27T17:39:17;0.73;;;0.43;;
15104;SDS011;7653;48.994;9.212;2022-09-27T17:41:47;1.97;;;1.37;;
15104;SDS011;7653;48.994;9.212;2022-09-27T17:44:17;2.87;;;2.00;;
15104;SDS011;7653;48.994;9.212;2022-09-27T17:50:56;1.43;;;1.10;;
15104;SDS011;7653;48.994;9.212;2022-09-27T17:53:24;1.70;;;0.93;;
